Time;durP1;ratioP1;P1;durP2;ratioP2;P2;SDS_P1;SDS_P2;PMS_P1;PMS_P2;Temp;Humidity;BMP_temperature;BMP_pressure;BME280_temperature;BME280_humidity;BME280_pressure;Samples;Min_cycle;Max_cycle;Signal;HPM_P1;HPM_P2
2022/04/10 00:00:37;;;;;;;1.17;1.08;;;;;;;;;;5100198;28;20263;-56
2022/04/10 00:03:04;;;;;;;1.10;1.00;;;;;;;;;;5099506;28;20304;-58
2022/04/10 00:05:32;;;;;;;1.20;1.10;;;;;;;;;;5100036;28;20543;-56
2022/04/10 00:07:59;;;;;;;1.20;1.10;;;;;;;;;;5099378;28;20233;-57
2022/04/10 00:10:27;;;;;;;1.20;1.10;;;;;;;;;;5099744;28;20203;-56
2022/04/10 00:12:55;;;;;;;1.35;1.15;;;;;;;;;;5099670;28;20590;-57
2022/04/10 00:15:23;;;;;;;0.80;0.80;;;;;;;;;;5099072;28;20214;-57
2022/04/10 00:17:50;;;;;;;0.85;0.85;;;;;;;;;;5099723;28;20451;-56
2022/04/10 00:20:18;;;;;;;0.80;0.80;;;;;;;;;;5099416;28;20386;-56
2022/04/10 00:22:46;;;;;;;1.00;1.00;;;;;;;;;;5099427;28;20318;-57
2022/04/10 00:25:14;;;;;;;1.17;1.08;;;;;;;;;;5099683;28;20204;-57
2022/04/10 00:27:42;;;;;;;0.95;0.95;;;;;;;;;;5099187;28;20204;-56
2022/04/10 00:30:12;;;;;;;0.90;0.80;;;;;;;;;;5100584;28;20219;-56
2022/04/10 00:32:39;;;;;;;1.00;0.90;;;;;;;;;;5119170;28;20480;-56
2022/04/10 00:35:07;;;;;;;1.00;0.90;;;;;;;;;;5099249;28;20652;-56
2022/04/10 00:37:35;;;;;;;0.95;0.88;;;;;;;;;;5102616;28;20198;-56
2022/04/10 00:40:03;;;;;;;1.20;1.00;;;;;;;;;;5115117;28;20199;-56
2022/04/10 00:42:33;;;;;;;0.90;0.90;;;;;;;;;;5098754;28;20615;-56
2022/04/10 00:45:00;;;;;;;0.70;0.70;;;;;;;;;;5105909;28;20230;-57
2022/04/10 00:47:29;;;;;;;0.75;0.75;;;;;;;;;;5099978;28;20567;-57
2022/04/10 00:49:58;;;;;;;0.77;0.77;;;;;;;;;;5098676;28;20208;-56
2022/04/10 00:52:28;;;;;;;0.73;0.73;;;;;;;;;;5098792;28;20203;-57
2022/04/10 00:54:56;;;;;;;0.80;0.80;;;;;;;;;;5116806;28;20199;-56
2022/04/10 00:57:24;;;;;;;1.02;0.93;;;;;;;;;;5119097;28;20207;-57
2022/04/10 00:59:51;;;;;;;0.90;0.90;;;;;;;;;;5118388;28;20198;-58
2022/04/10 01:02:19;;;;;;;0.82;0.70;;;;;;;;;;5117697;28;20485;-56
2022/04/10 01:04:48;;;;;;;0.75;0.70;;;;;;;;;;5117679;28;20226;-56
2022/04/10 01:07:17;;;;;;;0.80;0.70;;;;;;;;;;5115855;28;20259;-56
2022/04/10 01:09:44;;;;;;;0.70;0.70;;;;;;;;;;5097655;28;20196;-57
2022/04/10 01:12:12;;;;;;;0.70;0.70;;;;;;;;;;5097958;28;20228;-56
2022/04/10 01:14:40;;;;;;;0.85;0.80;;;;;;;;;;5096714;28;20608;-56
2022/04/10 01:17:08;;;;;;;0.93;0.80;;;;;;;;;;5117644;28;20313;-56
2022/04/10 01:19:36;;;;;;;0.93;0.70;;;;;;;;;;5100710;28;20282;-56
2022/04/10 01:22:06;;;;;;;0.93;0.70;;;;;;;;;;5097356;28;20204;-56
2022/04/10 01:24:37;;;;;;;0.60;0.60;;;;;;;;;;5113379;28;20222;-57
2022/04/10 01:27:05;;;;;;;0.82;0.55;;;;;;;;;;5117593;28;20584;-57
2022/04/10 01:29:33;;;;;;;0.70;0.70;;;;;;;;;;5117040;28;20679;-57
2022/04/10 01:32:01;;;;;;;0.70;0.70;;;;;;;;;;5117867;28;20206;-57
2022/04/10 01:34:29;;;;;;;0.60;0.60;;;;;;;;;;5102457;28;20206;-56
2022/04/10 01:36:56;;;;;;;0.70;0.70;;;;;;;;;;5113355;28;20199;-56
2022/04/10 01:39:26;;;;;;;0.98;0.80;;;;;;;;;;5099121;28;20199;-57
2022/04/10 01:41:55;;;;;;;0.60;0.60;;;;;;;;;;5113959;28;20207;-56
2022/04/10 01:44:23;;;;;;;0.60;0.60;;;;;;;;;;5102023;28;20232;-56
2022/04/10 01:46:50;;;;;;;0.70;0.70;;;;;;;;;;5112130;28;20207;-56
2022/04/10 01:49:18;;;;;;;0.60;0.60;;;;;;;;;;5117317;28;20206;-56
2022/04/10 01:51:45;;;;;;;0.50;0.50;;;;;;;;;;5116998;28;20464;-56
2022/04/10 01:54:12;;;;;;;0.70;0.63;;;;;;;;;;5116638;28;20191;-56
2022/04/10 01:56:41;;;;;;;1.40;0.80;;;;;;;;;;5117425;28;20207;-56
2022/04/10 01:59:10;;;;;;;0.50;0.50;;;;;;;;;;5107652;28;20200;-56
2022/04/10 02:01:37;;;;;;;0.57;0.57;;;;;;;;;;5095722;28;20219;-56
2022/04/10 02:04:05;;;;;;;0.50;0.50;;;;;;;;;;5095970;28;20507;-56
2022/04/10 02:06:32;;;;;;;0.60;0.60;;;;;;;;;;5096303;28;20550;-56
2022/04/10 02:08:59;;;;;;;0.60;0.60;;;;;;;;;;5096871;28;20203;-56
2022/04/10 02:11:27;;;;;;;0.60;0.60;;;;;;;;;;5096409;28;20264;-57
2022/04/10 02:13:54;;;;;;;0.90;0.70;;;;;;;;;;5097010;28;20218;-56
2022/04/10 02:16:23;;;;;;;0.50;0.50;;;;;;;;;;5096351;28;20369;-56
2022/04/10 02:18:50;;;;;;;0.70;0.57;;;;;;;;;;5097204;28;20213;-57
2022/04/10 02:21:18;;;;;;;0.52;0.52;;;;;;;;;;5096700;28;20204;-56
2022/04/10 02:23:45;;;;;;;0.60;0.60;;;;;;;;;;5096170;28;20223;-56
2022/04/10 02:26:15;;;;;;;0.52;0.52;;;;;;;;;;5096145;28;20502;-56
2022/04/10 02:28:43;;;;;;;0.90;0.65;;;;;;;;;;5095884;28;20206;-56
2022/04/10 02:31:11;;;;;;;0.55;0.50;;;;;;;;;;5097070;28;20570;-56
2022/04/10 02:33:40;;;;;;;0.50;0.50;;;;;;;;;;5096551;28;20578;-56
2022/04/10 02:36:07;;;;;;;1.00;0.55;;;;;;;;;;5097126;28;20281;-56
2022/04/10 02:38:35;;;;;;;0.50;0.50;;;;;;;;;;5104932;28;20195;-56
2022/04/10 02:41:02;;;;;;;0.68;0.60;;;;;;;;;;5102151;28;20239;-57
2022/04/10 02:43:29;;;;;;;0.57;0.55;;;;;;;;;;5096708;28;20641;-56
2022/04/10 02:45:57;;;;;;;0.50;0.50;;;;;;;;;;5097277;28;20595;-56
2022/04/10 02:48:24;;;;;;;0.50;0.50;;;;;;;;;;5098645;28;20200;-57
2022/04/10 02:50:53;;;;;;;0.73;0.57;;;;;;;;;;5097946;28;20211;-57
2022/04/10 02:53:20;;;;;;;1.00;0.70;;;;;;;;;;5096472;28;20203;-57
2022/04/10 02:55:48;;;;;;;0.88;0.50;;;;;;;;;;5100045;28;20206;-56
2022/04/10 02:58:15;;;;;;;0.60;0.60;;;;;;;;;;5112216;28;20200;-56
2022/04/10 03:00:43;;;;;;;0.60;0.60;;;;;;;;;;5097544;28;20210;-57
2022/04/10 03:03:10;;;;;;;0.47;0.47;;;;;;;;;;5096535;28;20200;-56
2022/04/10 03:05:37;;;;;;;0.80;0.50;;;;;;;;;;5096739;28;20195;-56
2022/04/10 03:08:07;;;;;;;0.50;0.50;;;;;;;;;;5103937;28;20214;-56
2022/04/10 03:10:34;;;;;;;0.50;0.50;;;;;;;;;;5115115;28;20199;-56
2022/04/10 03:13:02;;;;;;;0.70;0.60;;;;;;;;;;5115769;28;20195;-56
2022/04/10 03:15:29;;;;;;;0.52;0.50;;;;;;;;;;5116859;28;20202;-56
2022/04/10 03:17:56;;;;;;;0.77;0.77;;;;;;;;;;5080455;28;20196;-56
2022/04/10 03:20:24;;;;;;;0.60;0.55;;;;;;;;;;5096962;28;20211;-56
2022/04/10 03:22:51;;;;;;;0.93;0.50;;;;;;;;;;5100063;28;20211;-56
2022/04/10 03:25:21;;;;;;;0.50;0.50;;;;;;;;;;5100026;28;20227;-56
2022/04/10 03:27:48;;;;;;;0.52;0.52;;;;;;;;;;5101902;28;20203;-56
2022/04/10 03:30:16;;;;;;;0.60;0.60;;;;;;;;;;5120249;28;20298;-58
2022/04/10 03:32:43;;;;;;;0.80;0.80;;;;;;;;;;5119509;28;20237;-58
2022/04/10 03:35:11;;;;;;;0.73;0.68;;;;;;;;;;5120209;28;20199;-56
2022/04/10 03:37:38;;;;;;;0.73;0.47;;;;;;;;;;5117048;28;20204;-55
2022/04/10 03:40:06;;;;;;;0.70;0.70;;;;;;;;;;5099056;28;20633;-55
2022/04/10 03:42:40;;;;;;;0.60;0.60;;;;;;;;;;5100746;28;20215;-56
2022/04/10 03:45:08;;;;;;;0.63;0.57;;;;;;;;;;5113500;28;20239;-56
2022/04/10 03:47:35;;;;;;;0.70;0.70;;;;;;;;;;5118453;28;20195;-57
2022/04/10 03:50:03;;;;;;;0.70;0.70;;;;;;;;;;5120062;28;20201;-56
2022/04/10 03:52:31;;;;;;;0.50;0.50;;;;;;;;;;5100849;28;20200;-56
2022/04/10 03:54:59;;;;;;;0.68;0.60;;;;;;;;;;5099961;28;20210;-56
2022/04/10 03:57:26;;;;;;;0.68;0.68;;;;;;;;;;5099266;28;20203;-56
2022/04/10 03:59:55;;;;;;;0.63;0.63;;;;;;;;;;5101182;28;20204;-56
2022/04/10 04:02:23;;;;;;;0.80;0.60;;;;;;;;;;5097885;28;20222;-57
2022/04/10 04:04:51;;;;;;;0.60;0.50;;;;;;;;;;5098718;28;20246;-57
2022/04/10 04:07:19;;;;;;;0.70;0.70;;;;;;;;;;5098784;28;20277;-56
2022/04/10 04:09:46;;;;;;;0.55;0.55;;;;;;;;;;5099179;28;20203;-56
2022/04/10 04:12:13;;;;;;;0.65;0.52;;;;;;;;;;5099136;28;20453;-56
2022/04/10 04:14:41;;;;;;;0.70;0.70;;;;;;;;;;5099239;28;20200;-56
2022/04/10 04:17:10;;;;;;;0.70;0.60;;;;;;;;;;5098630;28;20199;-59
2022/04/10 04:19:38;;;;;;;0.80;0.60;;;;;;;;;;5099652;28;20456;-56
2022/04/10 04:22:05;;;;;;;0.70;0.70;;;;;;;;;;5098781;28;20208;-58
2022/04/10 04:24:32;;;;;;;0.60;0.60;;;;;;;;;;5098202;28;20234;-58
2022/04/10 04:27:00;;;;;;;0.55;0.50;;;;;;;;;;5098404;28;20302;-58
2022/04/10 04:29:27;;;;;;;0.60;0.60;;;;;;;;;;5098678;28;20203;-56
2022/04/10 04:31:55;;;;;;;0.43;0.43;;;;;;;;;;5103165;28;20209;-56
2022/04/10 04:34:24;;;;;;;0.77;0.70;;;;;;;;;;5106799;28;20188;-56
2022/04/10 04:36:51;;;;;;;0.57;0.57;;;;;;;;;;5098201;28;20226;-56
2022/04/10 04:39:18;;;;;;;0.70;0.60;;;;;;;;;;5115299;28;20203;-58
2022/04/10 04:41:46;;;;;;;0.60;0.60;;;;;;;;;;5101090;28;20492;-58
2022/04/10 04:44:13;;;;;;;0.82;0.68;;;;;;;;;;5097478;28;20227;-59
2022/04/10 04:46:41;;;;;;;0.82;0.77;;;;;;;;;;5110947;28;20198;-57
2022/04/10 04:49:09;;;;;;;1.52;0.63;;;;;;;;;;5117943;28;20632;-57
2022/04/10 04:51:38;;;;;;;0.75;0.75;;;;;;;;;;5118362;28;20262;-58
2022/04/10 04:54:08;;;;;;;0.40;0.40;;;;;;;;;;5103050;28;20196;-56
2022/04/10 04:56:35;;;;;;;0.75;0.60;;;;;;;;;;5098597;28;20476;-56
2022/04/10 04:59:03;;;;;;;0.50;0.50;;;;;;;;;;5098090;28;20200;-56
2022/04/10 05:01:30;;;;;;;0.70;0.70;;;;;;;;;;5097669;28;20222;-56
2022/04/10 05:03:58;;;;;;;0.60;0.60;;;;;;;;;;5097100;28;20199;-58
2022/04/10 05:06:25;;;;;;;0.65;0.60;;;;;;;;;;5098870;28;20287;-58
2022/04/10 05:08:54;;;;;;;0.75;0.70;;;;;;;;;;5110968;28;20198;-58
2022/04/10 05:11:21;;;;;;;0.50;0.50;;;;;;;;;;5117308;28;20203;-58
2022/04/10 05:13:49;;;;;;;0.50;0.50;;;;;;;;;;5105435;28;20204;-58
2022/04/10 05:16:16;;;;;;;0.60;0.57;;;;;;;;;;5097227;28;20218;-58
2022/04/10 05:18:44;;;;;;;0.77;0.60;;;;;;;;;;5106131;28;20203;-58
2022/04/10 05:21:11;;;;;;;0.60;0.60;;;;;;;;;;5117173;28;20203;-58
2022/04/10 05:23:38;;;;;;;0.50;0.50;;;;;;;;;;5107110;28;20211;-58
2022/04/10 05:26:08;;;;;;;0.50;0.50;;;;;;;;;;5116838;28;20233;-58
2022/04/10 05:28:35;;;;;;;0.60;0.60;;;;;;;;;;5099050;28;20200;-58
2022/04/10 05:31:02;;;;;;;0.50;0.50;;;;;;;;;;5096973;28;20219;-58
2022/04/10 05:33:30;;;;;;;0.50;0.50;;;;;;;;;;5113024;28;20221;-58
2022/04/10 05:35:57;;;;;;;0.70;0.60;;;;;;;;;;5113572;28;20192;-57
2022/04/10 05:38:25;;;;;;;0.63;0.63;;;;;;;;;;5106533;28;20226;-58
2022/04/10 05:40:53;;;;;;;0.70;0.70;;;;;;;;;;5117505;28;20203;-58
2022/04/10 05:43:22;;;;;;;0.60;0.60;;;;;;;;;;5111270;28;20257;-58
2022/04/10 05:45:50;;;;;;;0.73;0.65;;;;;;;;;;5096263;28;20243;-58
2022/04/10 05:48:17;;;;;;;0.63;0.63;;;;;;;;;;5104422;28;20608;-58
2022/04/10 05:50:45;;;;;;;0.65;0.50;;;;;;;;;;5116899;28;20213;-57
2022/04/10 05:53:12;;;;;;;0.82;0.80;;;;;;;;;;5116017;28;20316;-57
2022/04/10 05:55:40;;;;;;;0.63;0.60;;;;;;;;;;5115480;28;20218;-58
2022/04/10 05:58:07;;;;;;;0.60;0.60;;;;;;;;;;5107471;28;20195;-58
2022/04/10 06:00:36;;;;;;;0.50;0.50;;;;;;;;;;5096622;28;20218;-58
2022/04/10 06:03:04;;;;;;;0.70;0.70;;;;;;;;;;5096656;28;20226;-58
2022/04/10 06:05:31;;;;;;;1.00;0.60;;;;;;;;;;5096085;28;20219;-58
2022/04/10 06:07:59;;;;;;;0.70;0.65;;;;;;;;;;5096479;28;20203;-58
2022/04/10 06:10:26;;;;;;;0.90;0.60;;;;;;;;;;5096046;28;20219;-57
2022/04/10 06:12:54;;;;;;;0.68;0.60;;;;;;;;;;5096573;28;20203;-57
2022/04/10 06:15:21;;;;;;;0.50;0.50;;;;;;;;;;5096059;28;20199;-58
2022/04/10 06:17:50;;;;;;;0.68;0.60;;;;;;;;;;5095702;28;20215;-58
2022/04/10 06:20:18;;;;;;;0.80;0.80;;;;;;;;;;5095147;28;20214;-58
2022/04/10 06:22:45;;;;;;;0.60;0.60;;;;;;;;;;5096225;28;20203;-58
2022/04/10 06:25:12;;;;;;;0.85;0.70;;;;;;;;;;5095558;28;20231;-57
2022/04/10 06:27:40;;;;;;;0.60;0.60;;;;;;;;;;5096639;28;20196;-58
2022/04/10 06:30:07;;;;;;;0.75;0.75;;;;;;;;;;5097486;28;20195;-58
2022/04/10 06:32:35;;;;;;;0.60;0.60;;;;;;;;;;5115009;28;20199;-58
2022/04/10 06:35:04;;;;;;;0.73;0.60;;;;;;;;;;5117076;28;20203;-58
2022/04/10 06:37:31;;;;;;;0.98;0.60;;;;;;;;;;5115440;28;20605;-58
2022/04/10 06:39:59;;;;;;;0.90;0.80;;;;;;;;;;5115107;28;20199;-58
2022/04/10 06:42:27;;;;;;;0.70;0.70;;;;;;;;;;5097288;28;20225;-58
2022/04/10 06:44:54;;;;;;;0.70;0.70;;;;;;;;;;5116282;28;20227;-58
2022/04/10 06:47:22;;;;;;;0.65;0.60;;;;;;;;;;5115788;28;20214;-58
2022/04/10 06:49:50;;;;;;;0.80;0.80;;;;;;;;;;5096443;28;20230;-58
2022/04/10 06:52:18;;;;;;;0.50;0.50;;;;;;;;;;5095715;28;20203;-58
2022/04/10 06:54:46;;;;;;;0.70;0.70;;;;;;;;;;5096788;28;20587;-58
2022/04/10 06:57:13;;;;;;;0.68;0.63;;;;;;;;;;5100270;28;20464;-58
2022/04/10 06:59:40;;;;;;;0.70;0.70;;;;;;;;;;5117336;28;20205;-58
2022/04/10 07:02:09;;;;;;;0.77;0.60;;;;;;;;;;5118558;28;20201;-58
2022/04/10 07:04:36;;;;;;;0.63;0.60;;;;;;;;;;5104734;28;20664;-58
2022/04/10 07:07:04;;;;;;;1.35;0.82;;;;;;;;;;5099421;28;20204;-58
2022/04/10 07:09:33;;;;;;;0.63;0.63;;;;;;;;;;5118528;28;20492;-58
2022/04/10 07:12:00;;;;;;;0.60;0.60;;;;;;;;;;5115350;28;20203;-59
2022/04/10 07:14:27;;;;;;;0.75;0.75;;;;;;;;;;5098560;28;20200;-58
2022/04/10 07:16:55;;;;;;;0.70;0.70;;;;;;;;;;5098106;28;20191;-58
2022/04/10 07:19:22;;;;;;;1.05;0.80;;;;;;;;;;5098554;28;20200;-58
2022/04/10 07:24:37;;;;;;;0.80;0.70;;;;;;;;;;5118607;28;20202;-58
2022/04/10 07:27:04;;;;;;;0.60;0.60;;;;;;;;;;5117879;28;20198;-58
2022/04/10 07:29:32;;;;;;;0.65;0.65;;;;;;;;;;5108753;28;20325;-58
2022/04/10 07:31:59;;;;;;;0.85;0.80;;;;;;;;;;5098219;28;20215;-57
2022/04/10 07:34:26;;;;;;;0.80;0.70;;;;;;;;;;5097963;28;20204;-58
2022/04/10 07:36:54;;;;;;;0.82;0.70;;;;;;;;;;5098436;28;20200;-58
2022/04/10 07:39:21;;;;;;;0.95;0.70;;;;;;;;;;5114890;28;20191;-59
2022/04/10 07:41:50;;;;;;;0.95;0.70;;;;;;;;;;5102221;28;20238;-57
2022/04/10 07:44:17;;;;;;;0.70;0.70;;;;;;;;;;5115008;28;20481;-58
2022/04/10 07:49:30;;;;;;;0.65;0.65;;;;;;;;;;5099024;28;20304;-58
2022/04/10 07:51:57;;;;;;;0.70;0.70;;;;;;;;;;5097689;28;20515;-58
2022/04/10 07:54:24;;;;;;;0.60;0.60;;;;;;;;;;5098004;28;20192;-58
2022/04/10 07:56:53;;;;;;;0.88;0.80;;;;;;;;;;5098200;28;20211;-59
2022/04/10 07:59:23;;;;;;;0.82;0.60;;;;;;;;;;5109370;28;20203;-58
2022/04/10 08:01:51;;;;;;;0.85;0.80;;;;;;;;;;5096972;28;20204;-58
2022/04/10 08:04:18;;;;;;;0.88;0.63;;;;;;;;;;5097578;28;20207;-58
2022/04/10 08:06:46;;;;;;;0.70;0.70;;;;;;;;;;5095872;28;20292;-58
2022/04/10 08:09:13;;;;;;;0.63;0.57;;;;;;;;;;5097693;28;20468;-57
2022/04/10 08:11:41;;;;;;;0.60;0.60;;;;;;;;;;5097418;28;20220;-57
2022/04/10 08:14:09;;;;;;;1.02;0.80;;;;;;;;;;5096377;28;20494;-59
2022/04/10 08:16:37;;;;;;;0.65;0.60;;;;;;;;;;5097437;28;20575;-59
2022/04/10 08:19:04;;;;;;;0.82;0.70;;;;;;;;;;5096876;28;20204;-58
2022/04/10 08:21:32;;;;;;;1.27;0.68;;;;;;;;;;5096485;28;20492;-58
2022/04/10 08:23:59;;;;;;;0.85;0.70;;;;;;;;;;5097150;28;20204;-58
2022/04/10 08:26:27;;;;;;;0.70;0.70;;;;;;;;;;5097202;28;20227;-57
2022/04/10 08:28:54;;;;;;;1.15;0.63;;;;;;;;;;5096983;28;20221;-58
2022/04/10 08:31:24;;;;;;;0.75;0.70;;;;;;;;;;5097547;28;20302;-58
2022/04/10 08:33:51;;;;;;;1.20;0.68;;;;;;;;;;5096634;28;20290;-58
2022/04/10 08:36:19;;;;;;;1.90;0.75;;;;;;;;;;5096708;28;20199;-58
2022/04/10 08:38:47;;;;;;;1.02;0.80;;;;;;;;;;5108362;28;20523;-58
2022/04/10 08:41:14;;;;;;;0.70;0.70;;;;;;;;;;5108938;28;20196;-58
2022/04/10 08:43:43;;;;;;;0.60;0.60;;;;;;;;;;5096800;28;20572;-58
2022/04/10 08:46:12;;;;;;;0.65;0.65;;;;;;;;;;5106182;28;20235;-58
2022/04/10 08:48:41;;;;;;;0.70;0.70;;;;;;;;;;5116006;28;20225;-59
2022/04/10 08:51:08;;;;;;;1.05;0.70;;;;;;;;;;5117196;28;20278;-58
2022/04/10 08:53:37;;;;;;;0.77;0.70;;;;;;;;;;5116841;28;20492;-58
2022/04/10 08:56:06;;;;;;;0.80;0.80;;;;;;;;;;5117371;28;20224;-57
2022/04/10 08:58:34;;;;;;;0.73;0.70;;;;;;;;;;5106414;27;20591;-58
2022/04/10 09:01:01;;;;;;;0.80;0.70;;;;;;;;;;5099486;28;20196;-58
2022/04/10 09:03:30;;;;;;;0.70;0.70;;;;;;;;;;5115238;28;20202;-58
2022/04/10 09:06:06;;;;;;;0.88;0.75;;;;;;;;;;5098206;28;20617;-58
2022/04/10 09:08:33;;;;;;;0.70;0.70;;;;;;;;;;5107628;28;20195;-58
2022/04/10 09:11:02;;;;;;;0.98;0.63;;;;;;;;;;5117258;28;20256;-58
2022/04/10 09:13:31;;;;;;;0.63;0.60;;;;;;;;;;5116663;28;20199;-58
2022/04/10 09:16:03;;;;;;;1.45;0.70;;;;;;;;;;5116491;28;20217;-58
2022/04/10 09:18:30;;;;;;;0.73;0.73;;;;;;;;;;5115428;28;20264;-58
2022/04/10 09:21:08;;;;;;;2.35;2.15;;;;;;;;;;5116437;28;20199;-59
2022/04/10 09:23:35;;;;;;;2.63;2.42;;;;;;;;;;5106199;28;20265;-57
2022/04/10 09:26:03;;;;;;;1.80;1.70;;;;;;;;;;5095968;28;20227;-58
2022/04/10 09:28:44;;;;;;;2.30;2.10;;;;;;;;;;5098179;28;20488;-58
2022/04/10 09:31:27;;;;;;;2.20;2.00;;;;;;;;;;5095615;28;20238;-58
2022/04/10 09:33:55;;;;;;;2.45;2.25;;;;;;;;;;5100882;28;20203;-58
2022/04/10 09:36:31;;;;;;;2.42;2.22;;;;;;;;;;5115718;28;20201;-58
2022/04/10 09:38:58;;;;;;;3.30;2.25;;;;;;;;;;5101371;28;20207;-58
2022/04/10 09:41:26;;;;;;;2.45;2.25;;;;;;;;;;5109099;28;20621;-58
2022/04/10 09:43:53;;;;;;;3.60;2.42;;;;;;;;;;5096463;28;20606;-58
2022/04/10 09:46:22;;;;;;;2.83;2.63;;;;;;;;;;5096394;28;20219;-58
2022/04/10 09:48:49;;;;;;;2.92;2.63;;;;;;;;;;5095784;28;20203;-58
2022/04/10 09:51:17;;;;;;;3.08;2.80;;;;;;;;;;5096394;28;20571;-58
2022/04/10 09:54:01;;;;;;;2.92;2.72;;;;;;;;;;5096310;28;20211;-58
2022/04/10 09:56:29;;;;;;;3.72;3.42;;;;;;;;;;5096688;28;20249;-58
2022/04/10 09:58:58;;;;;;;40.97;30.10;;;;;;;;;;5105095;28;20213;-59
2022/04/10 10:01:26;;;;;;;28.33;22.08;;;;;;;;;;5099276;28;20202;-59
2022/04/10 10:03:54;;;;;;;24.65;19.58;;;;;;;;;;5095461;28;20226;-59
2022/04/10 10:06:23;;;;;;;19.63;16.58;;;;;;;;;;5095898;28;20223;-58
2022/04/10 10:08:52;;;;;;;18.10;15.32;;;;;;;;;;5096021;28;20272;-58
2022/04/10 10:11:20;;;;;;;18.80;14.32;;;;;;;;;;5095663;28;20199;-58
2022/04/10 10:13:48;;;;;;;18.25;13.77;;;;;;;;;;5095344;28;20269;-58
2022/04/10 10:16:17;;;;;;;15.25;12.82;;;;;;;;;;5095433;28;20609;-59
2022/04/10 10:18:46;;;;;;;15.18;12.75;;;;;;;;;;5095542;28;20480;-58
2022/04/10 10:21:15;;;;;;;14.35;12.45;;;;;;;;;;5096111;28;20200;-60
2022/04/10 10:23:44;;;;;;;16.13;13.00;;;;;;;;;;5099191;28;20196;-59
2022/04/10 10:26:19;;;;;;;17.27;13.30;;;;;;;;;;5095439;28;20227;-58
2022/04/10 10:28:57;;;;;;;16.33;13.20;;;;;;;;;;5095088;28;20227;-58
2022/04/10 10:31:32;;;;;;;15.73;14.13;;;;;;;;;;5098572;28;20203;-58
2022/04/10 10:34:02;;;;;;;17.20;15.40;;;;;;;;;;5100415;28;20195;-58
2022/04/10 10:36:29;;;;;;;16.90;15.20;;;;;;;;;;5117015;28;20699;-58
2022/04/10 10:38:58;;;;;;;20.02;17.92;;;;;;;;;;5103999;28;20199;-59
2022/04/10 10:41:39;;;;;;;19.65;17.65;;;;;;;;;;5111106;28;20199;-58
2022/04/10 10:44:18;;;;;;;21.00;18.92;;;;;;;;;;5119801;28;20230;-58
2022/04/10 10:47:00;;;;;;;21.52;19.45;;;;;;;;;;5120513;28;20521;-59
2022/04/10 10:49:29;;;;;;;23.33;21.13;;;;;;;;;;5116311;28;20262;-58
2022/04/10 10:51:57;;;;;;;21.60;19.73;;;;;;;;;;5099161;28;20716;-59
2022/04/10 10:54:31;;;;;;;22.73;20.63;;;;;;;;;;5099000;28;20210;-59
2022/04/10 10:57:00;;;;;;;21.75;19.85;;;;;;;;;;5110171;28;20209;-58
2022/04/10 10:59:34;;;;;;;20.88;19.05;;;;;;;;;;5119249;28;20489;-59
2022/04/10 11:02:06;;;;;;;20.17;18.48;;;;;;;;;;5105013;28;20671;-59
2022/04/10 11:04:34;;;;;;;18.85;17.17;;;;;;;;;;5096572;28;20489;-58
2022/04/10 11:07:12;;;;;;;18.50;16.80;;;;;;;;;;5098112;28;20259;-58
2022/04/10 11:09:48;;;;;;;17.83;16.42;;;;;;;;;;5097975;28;20204;-58
2022/04/10 11:12:17;;;;;;;16.88;15.48;;;;;;;;;;5098711;28;20544;-59
2022/04/10 11:14:47;;;;;;;16.67;15.23;;;;;;;;;;5098478;28;20200;-58
2022/04/10 11:17:18;;;;;;;14.77;13.48;;;;;;;;;;5098488;28;20287;-60
2022/04/10 11:19:46;;;;;;;15.18;13.88;;;;;;;;;;5109616;28;20209;-58
2022/04/10 11:22:16;;;;;;;13.93;12.80;;;;;;;;;;5117066;28;20530;-59
2022/04/10 11:24:45;;;;;;;14.25;13.05;;;;;;;;;;5105149;28;20528;-59
2022/04/10 11:27:13;;;;;;;12.77;11.73;;;;;;;;;;5097695;28;20234;-58
2022/04/10 11:29:51;;;;;;;13.50;12.30;;;;;;;;;;5076578;28;20211;-59
2022/04/10 11:32:19;;;;;;;11.10;10.20;;;;;;;;;;5116131;28;20494;-57
2022/04/10 11:35:00;;;;;;;11.20;10.32;;;;;;;;;;5115829;28;20527;-59
2022/04/10 11:37:38;;;;;;;10.30;9.50;;;;;;;;;;5108781;28;20275;-59
2022/04/10 11:40:06;;;;;;;9.02;8.32;;;;;;;;;;5113717;28;20202;-57
2022/04/10 11:42:36;;;;;;;9.82;8.93;;;;;;;;;;5096908;28;20195;-58
2022/04/10 11:45:05;;;;;;;9.10;8.40;;;;;;;;;;5108936;28;20218;-59
2022/04/10 11:47:35;;;;;;;8.20;7.60;;;;;;;;;;5117845;28;20491;-58
2022/04/10 11:50:02;;;;;;;7.60;7.00;;;;;;;;;;5118004;28;20539;-58
2022/04/10 11:52:30;;;;;;;7.72;7.13;;;;;;;;;;5117115;27;20207;-58
2022/04/10 11:54:58;;;;;;;7.07;6.47;;;;;;;;;;5117619;28;20547;-59
2022/04/10 11:57:26;;;;;;;6.82;6.32;;;;;;;;;;5116537;28;20259;-58
2022/04/10 11:59:55;;;;;;;6.82;6.32;;;;;;;;;;5100109;27;20215;-59
2022/04/10 12:02:24;;;;;;;6.30;5.80;;;;;;;;;;5096410;28;20215;-60
2022/04/10 12:04:52;;;;;;;5.90;5.43;;;;;;;;;;5097106;28;20199;-58
2022/04/10 12:07:20;;;;;;;5.72;5.28;;;;;;;;;;5097759;28;20288;-58
2022/04/10 12:09:48;;;;;;;5.85;5.45;;;;;;;;;;5095747;28;20203;-57
2022/04/10 12:12:15;;;;;;;5.22;4.82;;;;;;;;;;5096337;28;20203;-57
2022/04/10 12:14:43;;;;;;;5.00;4.60;;;;;;;;;;5096791;28;20210;-60
2022/04/10 12:17:14;;;;;;;4.68;4.30;;;;;;;;;;5095836;28;20491;-57
2022/04/10 12:19:43;;;;;;;4.05;3.75;;;;;;;;;;5095940;28;20203;-56
2022/04/10 12:22:11;;;;;;;4.00;3.70;;;;;;;;;;5097004;28;20217;-56
2022/04/10 12:24:38;;;;;;;4.10;3.67;;;;;;;;;;5096714;28;20203;-57
2022/04/10 12:27:07;;;;;;;4.32;4.03;;;;;;;;;;5096231;28;20635;-57
2022/04/10 12:29:35;;;;;;;3.67;3.38;;;;;;;;;;5095594;28;20202;-57
2022/04/10 12:32:04;;;;;;;3.42;3.13;;;;;;;;;;5105501;28;20203;-57
2022/04/10 12:34:35;;;;;;;3.50;3.05;;;;;;;;;;5100840;28;20221;-57
2022/04/10 12:37:09;;;;;;;2.90;2.70;;;;;;;;;;5095767;28;20200;-57
2022/04/10 12:39:36;;;;;;;2.92;2.72;;;;;;;;;;5099128;28;20198;-57
2022/04/10 12:42:07;;;;;;;2.72;2.53;;;;;;;;;;5098073;28;20269;-57
2022/04/10 12:44:34;;;;;;;2.40;2.20;;;;;;;;;;5114124;28;20234;-57
2022/04/10 12:47:02;;;;;;;3.25;2.28;;;;;;;;;;5117120;28;20227;-57
2022/04/10 12:49:30;;;;;;;2.30;2.10;;;;;;;;;;5115077;28;20233;-58
2022/04/10 12:51:59;;;;;;;2.40;2.20;;;;;;;;;;5116418;28;20268;-57
2022/04/10 12:54:38;;;;;;;2.30;2.10;;;;;;;;;;5115870;28;20207;-58
2022/04/10 12:57:06;;;;;;;3.28;2.35;;;;;;;;;;5116145;28;20265;-58
2022/04/10 12:59:38;;;;;;;2.33;2.13;;;;;;;;;;5081173;28;20200;-58
2022/04/10 13:02:09;;;;;;;2.30;2.10;;;;;;;;;;5075057;28;20197;-57
2022/04/10 13:04:37;;;;;;;2.70;2.20;;;;;;;;;;5095600;28;20288;-58
2022/04/10 13:07:04;;;;;;;2.42;1.90;;;;;;;;;;5096568;28;20231;-57
2022/04/10 13:09:32;;;;;;;2.00;1.80;;;;;;;;;;5114090;28;20204;-57
2022/04/10 13:12:01;;;;;;;2.25;2.05;;;;;;;;;;5115586;28;20191;-57
2022/04/10 13:14:29;;;;;;;2.47;1.70;;;;;;;;;;5116038;28;20199;-57
2022/04/10 13:17:04;;;;;;;1.60;1.50;;;;;;;;;;5112547;28;20454;-59
2022/04/10 13:19:32;;;;;;;1.98;1.58;;;;;;;;;;5095666;28;20222;-58
2022/04/10 13:21:59;;;;;;;1.60;1.50;;;;;;;;;;5095597;28;20234;-57
2022/04/10 13:24:27;;;;;;;1.75;1.40;;;;;;;;;;5096151;28;20500;-57
2022/04/10 13:26:54;;;;;;;1.50;1.40;;;;;;;;;;5106974;28;20227;-58
2022/04/10 13:29:23;;;;;;;1.95;1.70;;;;;;;;;;5095860;28;20205;-57
2022/04/10 13:31:50;;;;;;;1.95;1.38;;;;;;;;;;5095711;28;20610;-57
2022/04/10 13:34:18;;;;;;;2.28;1.40;;;;;;;;;;5095968;28;20596;-57
2022/04/10 13:36:45;;;;;;;1.40;1.20;;;;;;;;;;5096112;28;20207;-57
2022/04/10 13:39:12;;;;;;;1.50;1.10;;;;;;;;;;5096209;28;20210;-57
2022/04/10 13:41:42;;;;;;;1.30;1.20;;;;;;;;;;5099782;28;20208;-58
2022/04/10 13:44:09;;;;;;;1.52;1.30;;;;;;;;;;5103267;28;20199;-58
2022/04/10 13:46:39;;;;;;;2.00;1.00;;;;;;;;;;5116629;28;20582;-57
2022/04/10 13:49:06;;;;;;;2.10;1.40;;;;;;;;;;5115148;28;20199;-58
2022/04/10 13:51:34;;;;;;;2.40;1.25;;;;;;;;;;5115775;28;20582;-58
2022/04/10 13:54:02;;;;;;;1.30;1.08;;;;;;;;;;5115884;28;20195;-58
2022/04/10 13:56:30;;;;;;;1.30;1.20;;;;;;;;;;5114695;28;20203;-57
2022/04/10 13:58:57;;;;;;;1.67;1.20;;;;;;;;;;5103265;28;20497;-57
2022/04/10 14:01:24;;;;;;;2.17;1.20;;;;;;;;;;5095288;28;20597;-58
2022/04/10 14:03:53;;;;;;;2.08;1.00;;;;;;;;;;5094843;28;20206;-57
2022/04/10 14:06:21;;;;;;;1.30;1.00;;;;;;;;;;5095574;28;20497;-57
2022/04/10 14:08:48;;;;;;;1.75;1.10;;;;;;;;;;5095880;28;20215;-57
2022/04/10 14:11:16;;;;;;;1.65;1.00;;;;;;;;;;5094270;28;20195;-58
2022/04/10 14:13:44;;;;;;;2.05;1.00;;;;;;;;;;5095137;28;20229;-57
2022/04/10 14:16:12;;;;;;;2.00;1.02;;;;;;;;;;5095830;28;20207;-57
2022/04/10 14:18:39;;;;;;;1.60;1.20;;;;;;;;;;5094006;28;20217;-57
2022/04/10 14:21:08;;;;;;;1.77;1.10;;;;;;;;;;5094616;28;20622;-57
2022/04/10 14:23:35;;;;;;;1.70;1.00;;;;;;;;;;5094928;28;20203;-57
2022/04/10 14:26:03;;;;;;;1.50;0.95;;;;;;;;;;5094632;28;20214;-58
2022/04/10 14:28:30;;;;;;;3.50;1.25;;;;;;;;;;5095351;28;20224;-58
2022/04/10 14:30:58;;;;;;;2.67;1.00;;;;;;;;;;5095276;28;20214;-58
2022/04/10 14:33:26;;;;;;;2.25;1.20;;;;;;;;;;5095796;28;20244;-57
2022/04/10 14:35:53;;;;;;;1.40;1.00;;;;;;;;;;5094696;28;20210;-57
2022/04/10 14:38:22;;;;;;;2.28;1.00;;;;;;;;;;5103727;28;20539;-58
2022/04/10 14:40:49;;;;;;;2.72;0.95;;;;;;;;;;5107497;28;20203;-57
2022/04/10 14:43:17;;;;;;;3.20;1.30;;;;;;;;;;5101079;28;20196;-58
2022/04/10 14:45:44;;;;;;;2.85;1.20;;;;;;;;;;5104333;28;20231;-57
2022/04/10 14:48:12;;;;;;;4.10;1.00;;;;;;;;;;5095193;28;20219;-58
2022/04/10 14:50:39;;;;;;;2.30;0.90;;;;;;;;;;5094599;28;20196;-57
2022/04/10 14:53:07;;;;;;;2.05;1.10;;;;;;;;;;5088788;28;20210;-58